Meath Environmental Platform

Observations for Trim Market St

Time AQI Temp °C Hum % Pres Pa CO μg/m³ H₂S μg/m³ NO μg/m³ NO₂ μg/m³ O₃ μg/m³ SO₂ μg/m³ PM1 μg/m³ PM2.5 μg/m³ PM10 μg/m³
Sunday 23 August 2026
18:00 3 23.3 39 65,594 0 0 0.9 14.16 72.88 0 0.71 3.98 4.37
17:59 3 23.3 39 65,602 0 0 0.98 18.5 69.03 0 0.71 3.98 4.37
17:58 3 23.3 39 65,613 0 0 1.02 13.77 86.87 0 0.71 3.98 4.38
17:57 3 23.3 39 65,596 0 0 1.15 14.41 81.37 0 1.43 4.51 4.96
17:56 3 23.3 39 65,598 0 0 1.11 29.7 66.58 0 0.71 3.45 3.8
17:55 3 23.3 39 65,605 0 0 1.25 18.52 68.8 0 0 3.46 3.81
17:54 3 23.3 39 65,586 0 0 1.23 19.64 66.14 0 0.71 3.99 4.39
17:53 3 23.3 39 65,594 0 0 1.11 13.79 81.49 0 1.43 4 4.4
17:51 3 23.4 39 65,602 0 0 1.01 13.33 69.57 0 2.14 5.6 5.9
17:47 3 23.5 38 65,607 0 0 0.84 11.49 77.28 0 1.43 4.01 4.41
17:41 3 23.8 38 65,637 0 0.21 0.92 16.62 81.42 0 1.43 4.56 5.01
17:39 3 23.8 38 65,609 0 0 0.95 13.29 95.67 0 1.43 4.04 4.44
17:36 3 23.9 38 65,625 0 0 0.98 9.15 70.15 0 1.43 4.04 4.45
17:33 3 24 38 65,670 0 0 0.9 11.85 99.39 0 0 2.99 3.29
17:32 3 24.1 37 65,665 0 0 0.91 10.17 79.64 0 0.71 4.06 4.46
17:31 3 24.1 37 65,659 0 0 0.93 13.44 104.04 0 0 3.53 3.88
17:30 3 24.1 37 65,653 0 0 0.95 10.06 85.11 0 0.71 3.53 3.88
17:29 3 24.2 37 65,672 0 0 0.96 11.21 111.74 0 0.71 4.07 4.24
17:28 3 24.2 37 65,670 0 0 0.95 12.49 76.23 0 1.43 4.6 5.06
17:25 3 24.3 37 65,698 0 0 0.94 14.77 73.63 0 1.43 4.62 5.05